Cruzeiro Do Canal — CSVG — position and weather

sailwx.info

Track history (hours):
 
Tides and Currents Weather Stations Pressure Air Temp Water Temp Dewpoint Dewpoint Depression Visibility Wind Speed Wind Dir Waves Ship Positions

Cruzeiro Do Canal

Last reported at 2017-Sep-20 12:11 UTC. Time now 2017-Sep-21 10:53 UTC.
Position N 38°32' W 028°37'.

Length 32 m; draft 2.3 m.

Type: Passenger vessel. MMSI: 204701250.

Date/timePositionNaut miles runAvg speedWind from/ knotsBaromVisibWave heightAir tempDewpointWater temp
2017-Sep-20 12:11N 38°32' W 028°37'1 3.0
2017-Sep-20 12:00N 38°32' W 028°37'4 7.7
2017-Sep-20 11:30N 38°32' W 028°32'2 4.5
2017-Sep-20 11:00N 38°32' W 028°35'2 4.3
2017-Sep-20 10:30N 38°32' W 028°37'0 0.0
2017-Sep-20 10:00N 38°32' W 028°37'0 0.2
2017-Sep-20 09:30N 38°32' W 028°37'0 0.0
2017-Sep-19 16:13N 38°32' W 028°37'0 0.6
2017-Sep-19 16:00N 38°32' W 028°37'4 8.3
2017-Sep-19 15:30N 38°32' W 028°32'0 0.0
2017-Sep-19 15:00N 38°32' W 028°32'2 3.0
2017-Sep-19 14:30N 38°33' W 028°34'3 5.6
2017-Sep-19 14:00N 38°32' W 028°37'  
2017-Sep-16 22:33N 38°32' W 028°37'0 0.1
2017-Sep-16 22:30N 38°32' W 028°37'4 7.1
2017-Sep-16 22:00N 38°34' W 028°33'611.6
2017-Sep-16 21:30N 38°36' W 028°26'611.7
2017-Sep-16 21:00N 38°38' W 028°20'612.2
2017-Sep-16 20:30N 38°41' W 028°12'2 4.0
2017-Sep-16 20:00N 38°40' W 028°15'611.9
2017-Sep-16 19:30N 38°37' W 028°22'612.2
2017-Sep-16 19:00N 38°35' W 028°29'4 7.2
2017-Sep-16 18:30N 38°32' W 028°32'4 8.6
2017-Sep-16 18:00N 38°32' W 028°37'0 0.2
2017-Sep-16 17:30N 38°32' W 028°37'0 0.0
2017-Sep-16 17:00N 38°32' W 028°37'0 0.0
2017-Sep-16 16:30N 38°32' W 028°37'0 0.0
2017-Sep-16 16:00N 38°32' W 028°37'0 0.0
2017-Sep-16 15:30N 38°32' W 028°37'0 0.0
2017-Sep-16 15:00N 38°32' W 028°37'0 0.0
2017-Sep-16 14:30N 38°32' W 028°37'0 0.0
2017-Sep-16 14:00N 38°32' W 028°37'0 0.0
2017-Sep-16 13:30N 38°32' W 028°37'0 0.0
2017-Sep-16 13:01N 38°32' W 028°37'0 0.0
2017-Sep-16 12:30N 38°32' W 028°37'1 2.9
2017-Sep-16 12:00N 38°32' W 028°35'3 5.3
2017-Sep-16 11:31N 38°32' W 028°32'611.0
2017-Sep-16 11:00N 38°35' W 028°26'611.3
2017-Sep-16 10:30N 38°38' W 028°20'611.9
2017-Sep-16 10:00N 38°40' W 028°13'0 0.2
2017-Sep-16 09:30N 38°40' W 028°13'611.8
2017-Sep-16 09:00N 38°38' W 028°20'612.3
2017-Sep-16 08:30N 38°35' W 028°27'612.5
2017-Sep-16 08:00N 38°33' W 028°34'2 4.6
2017-Sep-16 07:30N 38°32' W 028°37'  
2017-Sep-11 22:33N 38°32' W 028°37'0 0.5
2017-Sep-11 22:30N 38°32' W 028°37'3 6.1
2017-Sep-11 22:00N 38°33' W 028°34'712.6
2017-Sep-11 21:29N 38°36' W 028°26'612.1
2017-Sep-11 21:01N 38°38' W 028°19'612.0
2017-Sep-11 20:31N 38°41' W 028°12'2 3.7
2017-Sep-11 20:00N 38°40' W 028°14'612.2
2017-Sep-11 19:30N 38°37' W 028°21'612.3
2017-Sep-11 19:00N 38°35' W 028°28'4 7.4
2017-Sep-11 18:30N 38°32' W 028°32'4 8.2
2017-Sep-11 18:01N 38°32' W 028°37'0 0.0
2017-Sep-11 12:17N 38°32' W 028°37'2 5.9
2017-Sep-11 12:01N 38°32' W 028°35'2 4.9
2017-Sep-11 11:30N 38°33' W 028°32'510.5
2017-Sep-11 11:00N 38°36' W 028°26'611.8
2017-Sep-11 10:31N 38°38' W 028°20'611.9
2017-Sep-11 10:00N 38°40' W 028°13'1 1.4
2017-Sep-11 09:30N 38°40' W 028°13'612.0
2017-Sep-11 09:01N 38°38' W 028°20'612.0
2017-Sep-11 08:30N 38°35' W 028°28'611.3
2017-Sep-11 08:00N 38°33' W 028°34'3 5.0
2017-Sep-11 07:31N 38°32' W 028°37'  
Track history (hours):
 
Tides and Currents Weather Stations Pressure Air Temp Water Temp Dewpoint Dewpoint Depression Visibility Wind Speed Wind Dir Waves Ship Positions

Cruzeiro Do Canal

Last reported at 2017-Sep-20 12:11 UTC. Time now 2017-Sep-21 10:53 UTC.
Position N 38°32' W 028°37'.

Length 32 m; draft 2.3 m.

Type: Passenger vessel. MMSI: 204701250.

Date/timePositionNaut miles runAvg speedWind from/ knotsBaromVisibWave heightAir tempDewpointWater temp
2017-Sep-20 12:11N 38°32' W 028°37'1 3.0
2017-Sep-20 12:00N 38°32' W 028°37'4 7.7
2017-Sep-20 11:30N 38°32' W 028°32'2 4.5
2017-Sep-20 11:00N 38°32' W 028°35'2 4.3
2017-Sep-20 10:30N 38°32' W 028°37'0 0.0
2017-Sep-20 10:00N 38°32' W 028°37'0 0.2
2017-Sep-20 09:30N 38°32' W 028°37'0 0.0
2017-Sep-19 16:13N 38°32' W 028°37'0 0.6
2017-Sep-19 16:00N 38°32' W 028°37'4 8.3
2017-Sep-19 15:30N 38°32' W 028°32'0 0.0
2017-Sep-19 15:00N 38°32' W 028°32'2 3.0
2017-Sep-19 14:30N 38°33' W 028°34'3 5.6
2017-Sep-19 14:00N 38°32' W 028°37'  
2017-Sep-16 22:33N 38°32' W 028°37'0 0.1
2017-Sep-16 22:30N 38°32' W 028°37'4 7.1
2017-Sep-16 22:00N 38°34' W 028°33'611.6
2017-Sep-16 21:30N 38°36' W 028°26'611.7
2017-Sep-16 21:00N 38°38' W 028°20'612.2
2017-Sep-16 20:30N 38°41' W 028°12'2 4.0
2017-Sep-16 20:00N 38°40' W 028°15'611.9
2017-Sep-16 19:30N 38°37' W 028°22'612.2
2017-Sep-16 19:00N 38°35' W 028°29'4 7.2
2017-Sep-16 18:30N 38°32' W 028°32'4 8.6
2017-Sep-16 18:00N 38°32' W 028°37'0 0.2
2017-Sep-16 17:30N 38°32' W 028°37'0 0.0
2017-Sep-16 17:00N 38°32' W 028°37'0 0.0
2017-Sep-16 16:30N 38°32' W 028°37'0 0.0
2017-Sep-16 16:00N 38°32' W 028°37'0 0.0
2017-Sep-16 15:30N 38°32' W 028°37'0 0.0
2017-Sep-16 15:00N 38°32' W 028°37'0 0.0
2017-Sep-16 14:30N 38°32' W 028°37'0 0.0
2017-Sep-16 14:00N 38°32' W 028°37'0 0.0
2017-Sep-16 13:30N 38°32' W 028°37'0 0.0
2017-Sep-16 13:01N 38°32' W 028°37'0 0.0
2017-Sep-16 12:30N 38°32' W 028°37'1 2.9
2017-Sep-16 12:00N 38°32' W 028°35'3 5.3
2017-Sep-16 11:31N 38°32' W 028°32'611.0
2017-Sep-16 11:00N 38°35' W 028°26'611.3
2017-Sep-16 10:30N 38°38' W 028°20'611.9
2017-Sep-16 10:00N 38°40' W 028°13'0 0.2
2017-Sep-16 09:30N 38°40' W 028°13'611.8
2017-Sep-16 09:00N 38°38' W 028°20'612.3
2017-Sep-16 08:30N 38°35' W 028°27'612.5
2017-Sep-16 08:00N 38°33' W 028°34'2 4.6
2017-Sep-16 07:30N 38°32' W 028°37'  
2017-Sep-11 22:33N 38°32' W 028°37'0 0.5
2017-Sep-11 22:30N 38°32' W 028°37'3 6.1
2017-Sep-11 22:00N 38°33' W 028°34'712.6
2017-Sep-11 21:29N 38°36' W 028°26'612.1
2017-Sep-11 21:01N 38°38' W 028°19'612.0
2017-Sep-11 20:31N 38°41' W 028°12'2 3.7
2017-Sep-11 20:00N 38°40' W 028°14'612.2
2017-Sep-11 19:30N 38°37' W 028°21'612.3
2017-Sep-11 19:00N 38°35' W 028°28'4 7.4
2017-Sep-11 18:30N 38°32' W 028°32'4 8.2
2017-Sep-11 18:01N 38°32' W 028°37'0 0.0
2017-Sep-11 12:17N 38°32' W 028°37'2 5.9
2017-Sep-11 12:01N 38°32' W 028°35'2 4.9
2017-Sep-11 11:30N 38°33' W 028°32'510.5
2017-Sep-11 11:00N 38°36' W 028°26'611.8
2017-Sep-11 10:31N 38°38' W 028°20'611.9
2017-Sep-11 10:00N 38°40' W 028°13'1 1.4
2017-Sep-11 09:30N 38°40' W 028°13'612.0
2017-Sep-11 09:01N 38°38' W 028°20'612.0
2017-Sep-11 08:30N 38°35' W 028°28'611.3
2017-Sep-11 08:00N 38°33' W 028°34'3 5.0
2017-Sep-11 07:31N 38°32' W 028°37'  

Dump ship's entire track history